sensor_id;sensor_type;location;lat;lon;timestamp;pressure;altitude;pressure_sealevel;temperature;humidity
76011;BME280;64701;43.536;1.478;2024-02-23T00:01:00;98624.84;;;8.41;100.00
76011;BME280;64701;43.536;1.478;2024-02-23T00:03:25;98621.63;;;8.39;100.00
76011;BME280;64701;43.536;1.478;2024-02-23T00:05:51;98623.63;;;8.37;100.00
76011;BME280;64701;43.536;1.478;2024-02-23T00:08:17;98620.78;;;8.32;100.00
76011;BME280;64701;43.536;1.478;2024-02-23T00:10:44;98611.41;;;8.30;100.00
76011;BME280;64701;43.536;1.478;2024-02-23T00:13:09;98611.00;;;8.26;100.00
76011;BME280;64701;43.536;1.478;2024-02-23T00:15:34;98608.53;;;8.25;100.00
76011;BME280;64701;43.536;1.478;2024-02-23T00:18:00;98606.91;;;8.24;100.00
76011;BME280;64701;43.536;1.478;2024-02-23T00:20:25;98604.88;;;8.19;100.00
76011;BME280;64701;43.536;1.478;2024-02-23T00:22:50;98600.81;;;8.16;100.00
76011;BME280;64701;43.536;1.478;2024-02-23T00:25:15;98594.50;;;8.11;100.00
76011;BME280;64701;43.536;1.478;2024-02-23T00:27:41;98598.38;;;8.08;100.00
76011;BME280;64701;43.536;1.478;2024-02-23T00:30:07;98589.84;;;8.06;100.00
76011;BME280;64701;43.536;1.478;2024-02-23T00:32:32;98594.47;;;8.04;100.00
76011;BME280;64701;43.536;1.478;2024-02-23T00:34:57;98593.06;;;8.02;100.00
76011;BME280;64701;43.536;1.478;2024-02-23T00:37:23;98593.44;;;7.99;100.00
76011;BME280;64701;43.536;1.478;2024-02-23T00:39:48;98597.94;;;7.98;99.85
76011;BME280;64701;43.536;1.478;2024-02-23T00:42:14;98588.59;;;7.96;100.00
76011;BME280;64701;43.536;1.478;2024-02-23T00:44:39;98589.41;;;7.96;99.90
76011;BME280;64701;43.536;1.478;2024-02-23T00:47:04;98580.28;;;7.92;99.93
76011;BME280;64701;43.536;1.478;2024-02-23T00:49:30;98584.88;;;7.84;100.00
76011;BME280;64701;43.536;1.478;2024-02-23T00:51:55;98579.00;;;7.82;100.00
76011;BME280;64701;43.536;1.478;2024-02-23T00:54:21;98579.59;;;7.77;100.00
76011;BME280;64701;43.536;1.478;2024-02-23T00:56:46;98584.22;;;7.68;100.00
76011;BME280;64701;43.536;1.478;2024-02-23T00:59:12;98578.97;;;7.68;100.00
76011;BME280;64701;43.536;1.478;2024-02-23T01:01:37;98571.84;;;7.62;100.00
76011;BME280;64701;43.536;1.478;2024-02-23T01:04:03;98570.59;;;7.58;100.00
76011;BME280;64701;43.536;1.478;2024-02-23T01:06:28;98566.72;;;7.54;100.00
76011;BME280;64701;43.536;1.478;2024-02-23T01:08:53;98564.88;;;7.48;100.00
76011;BME280;64701;43.536;1.478;2024-02-23T01:11:18;98557.97;;;7.47;100.00
76011;BME280;64701;43.536;1.478;2024-02-23T01:13:44;98558.75;;;7.41;100.00
76011;BME280;64701;43.536;1.478;2024-02-23T01:16:09;98560.75;;;7.39;100.00
76011;BME280;64701;43.536;1.478;2024-02-23T01:18:34;98558.75;;;7.41;100.00
76011;BME280;64701;43.536;1.478;2024-02-23T01:21:00;98549.22;;;7.40;100.00
76011;BME280;64701;43.536;1.478;2024-02-23T01:23:25;98549.63;;;7.37;100.00
76011;BME280;64701;43.536;1.478;2024-02-23T01:25:50;98553.91;;;7.38;100.00
76011;BME280;64701;43.536;1.478;2024-02-23T01:28:15;98555.91;;;7.36;100.00
76011;BME280;64701;43.536;1.478;2024-02-23T01:30:41;98559.53;;;7.35;100.00
76011;BME280;64701;43.536;1.478;2024-02-23T01:33:06;98558.13;;;7.32;100.00
76011;BME280;64701;43.536;1.478;2024-02-23T01:35:32;98553.44;;;7.34;100.00
76011;BME280;64701;43.536;1.478;2024-02-23T01:37:57;98561.16;;;7.36;100.00
76011;BME280;64701;43.536;1.478;2024-02-23T01:40:23;98553.84;;;7.31;100.00
76011;BME280;64701;43.536;1.478;2024-02-23T01:42:48;98555.91;;;7.36;100.00
76011;BME280;64701;43.536;1.478;2024-02-23T01:45:13;98551.00;;;7.33;100.00
76011;BME280;64701;43.536;1.478;2024-02-23T01:47:38;98548.38;;;7.33;100.00
76011;BME280;64701;43.536;1.478;2024-02-23T01:50:04;98545.75;;;7.33;100.00
76011;BME280;64701;43.536;1.478;2024-02-23T01:52:30;98542.69;;;7.29;100.00
76011;BME280;64701;43.536;1.478;2024-02-23T01:54:56;98537.25;;;7.31;100.00
76011;BME280;64701;43.536;1.478;2024-02-23T01:57:21;98535.97;;;7.27;100.00
76011;BME280;64701;43.536;1.478;2024-02-23T01:59:47;98521.81;;;7.28;100.00
76011;BME280;64701;43.536;1.478;2024-02-23T02:02:12;98525.72;;;7.32;100.00
76011;BME280;64701;43.536;1.478;2024-02-23T02:04:38;98520.66;;;7.37;100.00
76011;BME280;64701;43.536;1.478;2024-02-23T02:07:03;98526.34;;;7.41;100.00
76011;BME280;64701;43.536;1.478;2024-02-23T02:09:29;98519.88;;;7.43;100.00
76011;BME280;64701;43.536;1.478;2024-02-23T02:11:54;98519.88;;;7.43;100.00
76011;BME280;64701;43.536;1.478;2024-02-23T02:14:20;98509.34;;;7.43;100.00
76011;BME280;64701;43.536;1.478;2024-02-23T02:16:45;98507.31;;;7.45;100.00
76011;BME280;64701;43.536;1.478;2024-02-23T02:19:11;98505.31;;;7.47;100.00
76011;BME280;64701;43.536;1.478;2024-02-23T02:21:36;98503.25;;;7.43;100.00
76011;BME280;64701;43.536;1.478;2024-02-23T02:24:02;98500.59;;;7.36;100.00
76011;BME280;64701;43.536;1.478;2024-02-23T02:26:28;98494.88;;;7.26;100.00
76011;BME280;64701;43.536;1.478;2024-02-23T02:28:53;98496.50;;;7.20;100.00
76011;BME280;64701;43.536;1.478;2024-02-23T02:31:18;98486.09;;;7.12;100.00
76011;BME280;64701;43.536;1.478;2024-02-23T02:33:44;98489.09;;;7.03;100.00
76011;BME280;64701;43.536;1.478;2024-02-23T02:36:09;98486.44;;;6.96;100.00
76011;BME280;64701;43.536;1.478;2024-02-23T02:38:34;98483.13;;;6.87;100.00
76011;BME280;64701;43.536;1.478;2024-02-23T02:40:59;98478.69;;;6.88;100.00
76011;BME280;64701;43.536;1.478;2024-02-23T02:43:27;98471.38;;;6.83;100.00
76011;BME280;64701;43.536;1.478;2024-02-23T02:45:53;98469.50;;;6.77;100.00
76011;BME280;64701;43.536;1.478;2024-02-23T02:48:18;98471.50;;;6.75;100.00
76011;BME280;64701;43.536;1.478;2024-02-23T02:50:43;98468.06;;;6.75;100.00
76011;BME280;64701;43.536;1.478;2024-02-23T02:53:09;98460.00;;;6.76;100.00
76011;BME280;64701;43.536;1.478;2024-02-23T02:55:35;98448.28;;;6.79;100.00
76011;BME280;64701;43.536;1.478;2024-02-23T02:58:00;98451.31;;;6.82;100.00
76011;BME280;64701;43.536;1.478;2024-02-23T03:00:26;98444.28;;;6.89;100.00
76011;BME280;64701;43.536;1.478;2024-02-23T03:02:52;98446.16;;;6.95;100.00
76011;BME280;64701;43.536;1.478;2024-02-23T03:05:17;98444.34;;;6.96;100.00
76011;BME280;64701;43.536;1.478;2024-02-23T03:07:42;98450.81;;;7.00;100.00
76011;BME280;64701;43.536;1.478;2024-02-23T03:10:08;98450.59;;;6.95;100.00
76011;BME280;64701;43.536;1.478;2024-02-23T03:12:33;98445.75;;;6.98;100.00
76011;BME280;64701;43.536;1.478;2024-02-23T03:14:59;98446.19;;;7.02;100.00
76011;BME280;64701;43.536;1.478;2024-02-23T03:17:24;98446.78;;;7.04;100.00
76011;BME280;64701;43.536;1.478;2024-02-23T03:19:49;98448.00;;;7.02;100.00
76011;BME280;64701;43.536;1.478;2024-02-23T03:22:18;98444.38;;;7.03;100.00
76011;BME280;64701;43.536;1.478;2024-02-23T03:24:43;98439.88;;;6.96;100.00
76011;BME280;64701;43.536;1.478;2024-02-23T03:27:08;98442.69;;;6.95;100.00
76011;BME280;64701;43.536;1.478;2024-02-23T03:29:33;98442.06;;;6.93;100.00
76011;BME280;64701;43.536;1.478;2024-02-23T03:31:59;98446.34;;;6.94;100.00
76011;BME280;64701;43.536;1.478;2024-02-23T03:34:26;98443.28;;;6.90;100.00
76011;BME280;64701;43.536;1.478;2024-02-23T03:36:51;98431.31;;;6.88;100.00
76011;BME280;64701;43.536;1.478;2024-02-23T03:39:17;98429.69;;;6.87;100.00
76011;BME280;64701;43.536;1.478;2024-02-23T03:41:42;98429.28;;;6.83;100.00
76011;BME280;64701;43.536;1.478;2024-02-23T03:44:07;98420.34;;;6.78;100.00
76011;BME280;64701;43.536;1.478;2024-02-23T03:46:33;98412.81;;;6.75;100.00
76011;BME280;64701;43.536;1.478;2024-02-23T03:48:59;98404.72;;;6.70;100.00
76011;BME280;64701;43.536;1.478;2024-02-23T03:51:25;98398.81;;;6.68;100.00
76011;BME280;64701;43.536;1.478;2024-02-23T03:53:50;98403.03;;;6.62;100.00
76011;BME280;64701;43.536;1.478;2024-02-23T03:56:15;98397.56;;;6.57;100.00
76011;BME280;64701;43.536;1.478;2024-02-23T03:58:41;98392.25;;;6.50;100.00
76011;BME280;64701;43.536;1.478;2024-02-23T04:01:06;98379.88;;;6.44;100.00
76011;BME280;64701;43.536;1.478;2024-02-23T04:03:31;98379.28;;;6.42;100.00
76011;BME280;64701;43.536;1.478;2024-02-23T04:05:56;98383.28;;;6.38;100.00
76011;BME280;64701;43.536;1.478;2024-02-23T04:08:22;98383.09;;;6.40;100.00
76011;BME280;64701;43.536;1.478;2024-02-23T04:10:47;98388.13;;;6.35;100.00
76011;BME280;64701;43.536;1.478;2024-02-23T04:13:12;98383.69;;;6.35;100.00
76011;BME280;64701;43.536;1.478;2024-02-23T04:15:42;98381.91;;;6.42;100.00
76011;BME280;64701;43.536;1.478;2024-02-23T04:18:08;98384.31;;;6.37;100.00
76011;BME280;64701;43.536;1.478;2024-02-23T04:20:33;98382.28;;;6.39;100.00
76011;BME280;64701;43.536;1.478;2024-02-23T04:22:58;98383.31;;;6.45;100.00
76011;BME280;64701;43.536;1.478;2024-02-23T04:25:24;98371.81;;;6.46;100.00
76011;BME280;64701;43.536;1.478;2024-02-23T04:27:49;98373.03;;;6.50;100.00
76011;BME280;64701;43.536;1.478;2024-02-23T04:30:14;98379.69;;;6.46;100.00
76011;BME280;64701;43.536;1.478;2024-02-23T04:32:40;98390.25;;;6.52;100.00
76011;BME280;64701;43.536;1.478;2024-02-23T04:35:05;98386.81;;;6.52;100.00
76011;BME280;64701;43.536;1.478;2024-02-23T04:37:30;98388.44;;;6.53;100.00
76011;BME280;64701;43.536;1.478;2024-02-23T04:39:56;98381.78;;;6.57;100.00
76011;BME280;64701;43.536;1.478;2024-02-23T04:42:21;98389.06;;;6.55;100.00
76011;BME280;64701;43.536;1.478;2024-02-23T04:44:46;98385.66;;;6.61;100.00
76011;BME280;64701;43.536;1.478;2024-02-23T04:47:11;98380.63;;;6.66;100.00
76011;BME280;64701;43.536;1.478;2024-02-23T04:49:37;98372.97;;;6.71;100.00
76011;BME280;64701;43.536;1.478;2024-02-23T04:52:02;98386.53;;;6.75;100.00
76011;BME280;64701;43.536;1.478;2024-02-23T04:54:28;98384.72;;;6.75;100.00
76011;BME280;64701;43.536;1.478;2024-02-23T04:56:54;98370.56;;;6.76;100.00
76011;BME280;64701;43.536;1.478;2024-02-23T04:59:19;98371.19;;;6.78;100.00
76011;BME280;64701;43.536;1.478;2024-02-23T05:01:44;98367.34;;;6.81;100.00
76011;BME280;64701;43.536;1.478;2024-02-23T05:04:09;98364.88;;;6.79;100.00
76011;BME280;64701;43.536;1.478;2024-02-23T05:06:35;98368.09;;;6.75;100.00
76011;BME280;64701;43.536;1.478;2024-02-23T05:09:00;98367.09;;;6.76;100.00
76011;BME280;64701;43.536;1.478;2024-02-23T05:11:26;98371.97;;;6.72;100.00
76011;BME280;64701;43.536;1.478;2024-02-23T05:13:51;98373.78;;;6.72;100.00
76011;BME280;64701;43.536;1.478;2024-02-23T05:16:17;98365.69;;;6.73;100.00
76011;BME280;64701;43.536;1.478;2024-02-23T05:18:42;98369.94;;;6.74;100.00
76011;BME280;64701;43.536;1.478;2024-02-23T05:21:08;98372.16;;;6.71;100.00
76011;BME280;64701;43.536;1.478;2024-02-23T05:23:34;98373.38;;;6.75;100.00
76011;BME280;64701;43.536;1.478;2024-02-23T05:25:59;98372.56;;;6.74;100.00
76011;BME280;64701;43.536;1.478;2024-02-23T05:28:25;98364.66;;;6.74;100.00
76011;BME280;64701;43.536;1.478;2024-02-23T05:30:51;98372.97;;;6.71;100.00
76011;BME280;64701;43.536;1.478;2024-02-23T05:33:16;98366.06;;;6.70;100.00
76011;BME280;64701;43.536;1.478;2024-02-23T05:35:41;98368.06;;;6.68;100.00
76011;BME280;64701;43.536;1.478;2024-02-23T05:38:07;98359.19;;;6.69;100.00
76011;BME280;64701;43.536;1.478;2024-02-23T05:40:32;98361.22;;;6.67;100.00
76011;BME280;64701;43.536;1.478;2024-02-23T05:43:01;98366.84;;;6.64;100.00
76011;BME280;64701;43.536;1.478;2024-02-23T05:45:26;98374.13;;;6.62;100.00
76011;BME280;64701;43.536;1.478;2024-02-23T05:47:51;98375.69;;;6.56;100.00
76011;BME280;64701;43.536;1.478;2024-02-23T05:50:16;98372.66;;;6.53;100.00
76011;BME280;64701;43.536;1.478;2024-02-23T05:52:42;98373.28;;;6.55;100.00
76011;BME280;64701;43.536;1.478;2024-02-23T05:55:07;98373.66;;;6.52;100.00
76011;BME280;64701;43.536;1.478;2024-02-23T05:57:33;98375.69;;;6.56;100.00
76011;BME280;64701;43.536;1.478;2024-02-23T05:59:58;98378.72;;;6.53;100.00
76011;BME280;64701;43.536;1.478;2024-02-23T06:02:23;98373.28;;;6.55;100.00
76011;BME280;64701;43.536;1.478;2024-02-23T06:04:49;98385.03;;;6.59;100.00
76011;BME280;64701;43.536;1.478;2024-02-23T06:07:14;98376.69;;;6.55;100.00
76011;BME280;64701;43.536;1.478;2024-02-23T06:09:43;98380.16;;;6.56;100.00
76011;BME280;64701;43.536;1.478;2024-02-23T06:12:08;98377.97;;;6.60;100.00
76011;BME280;64701;43.536;1.478;2024-02-23T06:14:34;98380.00;;;6.64;100.00
76011;BME280;64701;43.536;1.478;2024-02-23T06:16:59;98381.00;;;6.63;100.00
76011;BME280;64701;43.536;1.478;2024-02-23T06:19:24;98377.38;;;6.64;100.00
76011;BME280;64701;43.536;1.478;2024-02-23T06:21:50;98374.56;;;6.66;100.00
76011;BME280;64701;43.536;1.478;2024-02-23T06:24:16;98380.00;;;6.64;100.00
76011;BME280;64701;43.536;1.478;2024-02-23T06:26:41;98378.56;;;6.62;100.00
76011;BME280;64701;43.536;1.478;2024-02-23T06:29:06;98375.97;;;6.68;100.00
76011;BME280;64701;43.536;1.478;2024-02-23T06:31:33;98379.41;;;6.69;100.00
76011;BME280;64701;43.536;1.478;2024-02-23T06:33:59;98372.34;;;6.69;100.00
76011;BME280;64701;43.536;1.478;2024-02-23T06:36:25;98377.78;;;6.68;100.00
76011;BME280;64701;43.536;1.478;2024-02-23T06:38:50;98384.25;;;6.65;100.00
76011;BME280;64701;43.536;1.478;2024-02-23T06:41:15;98383.25;;;6.66;100.00
76011;BME280;64701;43.536;1.478;2024-02-23T06:43:41;98380.22;;;6.69;100.00
76011;BME280;64701;43.536;1.478;2024-02-23T06:46:07;98383.28;;;6.73;100.00
76011;BME280;64701;43.536;1.478;2024-02-23T06:48:33;98378.84;;;6.73;100.00
76011;BME280;64701;43.536;1.478;2024-02-23T06:50:59;98379.84;;;6.72;100.00
76011;BME280;64701;43.536;1.478;2024-02-23T06:53:24;98389.59;;;6.78;100.00
76011;BME280;64701;43.536;1.478;2024-02-23T06:55:49;98382.94;;;6.82;100.00
76011;BME280;64701;43.536;1.478;2024-02-23T06:58:15;98381.94;;;6.83;100.00
76011;BME280;64701;43.536;1.478;2024-02-23T07:00:41;98382.31;;;6.80;100.00
76011;BME280;64701;43.536;1.478;2024-02-23T07:03:07;98381.06;;;6.76;100.00
76011;BME280;64701;43.536;1.478;2024-02-23T07:05:32;98391.00;;;6.81;100.00
76011;BME280;64701;43.536;1.478;2024-02-23T07:07:57;98398.88;;;6.74;100.00
76011;BME280;64701;43.536;1.478;2024-02-23T07:10:22;98399.72;;;6.81;100.00
76011;BME280;64701;43.536;1.478;2024-02-23T07:12:50;98404.34;;;6.79;100.00
76011;BME280;64701;43.536;1.478;2024-02-23T07:15:18;98396.00;;;6.69;100.00
76011;BME280;64701;43.536;1.478;2024-02-23T07:17:44;98404.44;;;6.58;100.00
76011;BME280;64701;43.536;1.478;2024-02-23T07:20:09;98404.84;;;6.62;100.00
76011;BME280;64701;43.536;1.478;2024-02-23T07:22:35;98400.41;;;6.62;100.00
76011;BME280;64701;43.536;1.478;2024-02-23T07:25:01;98403.84;;;6.63;100.00
76011;BME280;64701;43.536;1.478;2024-02-23T07:27:29;98407.31;;;6.63;100.00
76011;BME280;64701;43.536;1.478;2024-02-23T07:29:54;98403.50;;;6.66;100.00
76011;BME280;64701;43.536;1.478;2024-02-23T07:32:19;98401.28;;;6.69;100.00
76011;BME280;64701;43.536;1.478;2024-02-23T07:34:45;98395.81;;;6.71;100.00
76011;BME280;64701;43.536;1.478;2024-02-23T07:37:10;98392.19;;;6.72;100.00
76011;BME280;64701;43.536;1.478;2024-02-23T07:39:35;98396.84;;;6.76;100.00
76011;BME280;64701;43.536;1.478;2024-02-23T07:42:00;98398.50;;;6.77;100.00
76011;BME280;64701;43.536;1.478;2024-02-23T07:44:26;98394.63;;;6.80;100.00
76011;BME280;64701;43.536;1.478;2024-02-23T07:46:52;98394.25;;;6.83;100.00
76011;BME280;64701;43.536;1.478;2024-02-23T07:49:19;98407.81;;;6.86;100.00
76011;BME280;64701;43.536;1.478;2024-02-23T07:51:44;98398.91;;;6.81;100.00
76011;BME280;64701;43.536;1.478;2024-02-23T07:54:09;98397.53;;;6.85;100.00
76011;BME280;64701;43.536;1.478;2024-02-23T07:56:35;98399.34;;;6.84;100.00
76011;BME280;64701;43.536;1.478;2024-02-23T07:59:00;98396.50;;;6.86;100.00
76011;BME280;64701;43.536;1.478;2024-02-23T08:01:28;98384.97;;;6.87;100.00
76011;BME280;64701;43.536;1.478;2024-02-23T08:03:53;98372.63;;;6.87;100.00
76011;BME280;64701;43.536;1.478;2024-02-23T08:06:19;98362.53;;;6.97;100.00
76011;BME280;64701;43.536;1.478;2024-02-23T08:08:45;98366.59;;;7.00;100.00
76011;BME280;64701;43.536;1.478;2024-02-23T08:11:10;98370.69;;;7.03;100.00
76011;BME280;64701;43.536;1.478;2024-02-23T08:13:35;98374.72;;;7.05;100.00
76011;BME280;64701;43.536;1.478;2024-02-23T08:16:01;98378.38;;;7.11;100.00
76011;BME280;64701;43.536;1.478;2024-02-23T08:18:26;98382.81;;;7.10;100.00
76011;BME280;64701;43.536;1.478;2024-02-23T08:20:52;98384.88;;;7.21;100.00
76011;BME280;64701;43.536;1.478;2024-02-23T08:23:17;98380.47;;;7.28;100.00
76011;BME280;64701;43.536;1.478;2024-02-23T08:25:44;98389.34;;;7.27;100.00
76011;BME280;64701;43.536;1.478;2024-02-23T08:28:09;98378.47;;;7.37;100.00
76011;BME280;64701;43.536;1.478;2024-02-23T08:30:34;98383.94;;;7.42;100.00
76011;BME280;64701;43.536;1.478;2024-02-23T08:33:00;98385.56;;;7.36;100.00
76011;BME280;64701;43.536;1.478;2024-02-23T08:35:26;98386.19;;;7.38;100.00
76011;BME280;64701;43.536;1.478;2024-02-23T08:37:51;98387.78;;;7.46;100.00
76011;BME280;64701;43.536;1.478;2024-02-23T08:40:16;98385.81;;;7.61;100.00
76011;BME280;64701;43.536;1.478;2024-02-23T08:42:41;98398.38;;;7.72;100.00
76011;BME280;64701;43.536;1.478;2024-02-23T08:45:07;98399.22;;;7.79;100.00
76011;BME280;64701;43.536;1.478;2024-02-23T08:47:32;98391.50;;;7.85;100.00
76011;BME280;64701;43.536;1.478;2024-02-23T08:50:00;98395.75;;;8.05;100.00
76011;BME280;64701;43.536;1.478;2024-02-23T08:52:25;98405.31;;;8.13;100.00
76011;BME280;64701;43.536;1.478;2024-02-23T08:54:51;98407.31;;;8.11;99.88
76011;BME280;64701;43.536;1.478;2024-02-23T08:57:16;98401.25;;;8.30;99.35
76011;BME280;64701;43.536;1.478;2024-02-23T08:59:44;98394.53;;;8.47;96.62
76011;BME280;64701;43.536;1.478;2024-02-23T09:02:09;98414.97;;;8.78;96.26
76011;BME280;64701;43.536;1.478;2024-02-23T09:04:35;98414.13;;;8.97;94.85
76011;BME280;64701;43.536;1.478;2024-02-23T09:07:01;98419.56;;;9.09;92.18
76011;BME280;64701;43.536;1.478;2024-02-23T09:09:26;98404.25;;;9.24;90.63
76011;BME280;64701;43.536;1.478;2024-02-23T09:11:51;98400.63;;;9.57;90.25
76011;BME280;64701;43.536;1.478;2024-02-23T09:14:17;98403.88;;;9.90;88.89
76011;BME280;64701;43.536;1.478;2024-02-23T09:16:42;98392.13;;;10.11;85.33
76011;BME280;64701;43.536;1.478;2024-02-23T09:19:07;98393.69;;;9.94;82.66
76011;BME280;64701;43.536;1.478;2024-02-23T09:21:32;98409.50;;;10.00;83.87
76011;BME280;64701;43.536;1.478;2024-02-23T09:23:58;98402.72;;;10.36;83.63
76011;BME280;64701;43.536;1.478;2024-02-23T09:26:24;98399.66;;;10.57;80.56
76011;BME280;64701;43.536;1.478;2024-02-23T09:28:49;98410.22;;;10.82;79.12
76011;BME280;64701;43.536;1.478;2024-02-23T09:31:15;98400.56;;;10.87;79.03
76011;BME280;64701;43.536;1.478;2024-02-23T09:33:40;98401.28;;;10.58;78.50
76011;BME280;64701;43.536;1.478;2024-02-23T09:36:06;98400.13;;;10.54;79.88
76011;BME280;64701;43.536;1.478;2024-02-23T09:38:31;98404.53;;;10.60;79.94
76011;BME280;64701;43.536;1.478;2024-02-23T09:40:57;98395.19;;;10.57;79.38
76011;BME280;64701;43.536;1.478;2024-02-23T09:43:22;98409.50;;;10.50;78.58
76011;BME280;64701;43.536;1.478;2024-02-23T09:45:51;98410.72;;;10.54;80.59
76011;BME280;64701;43.536;1.478;2024-02-23T09:48:17;98409.94;;;10.47;80.78
76011;BME280;64701;43.536;1.478;2024-02-23T09:50:43;98408.81;;;10.11;79.61
76011;BME280;64701;43.536;1.478;2024-02-23T09:53:09;98416.41;;;9.70;80.34
76011;BME280;64701;43.536;1.478;2024-02-23T09:55:36;98411.94;;;9.70;81.02
76011;BME280;64701;43.536;1.478;2024-02-23T09:58:01;98412.66;;;9.53;81.73
76011;BME280;64701;43.536;1.478;2024-02-23T10:00:28;98416.13;;;9.53;83.15
76011;BME280;64701;43.536;1.478;2024-02-23T10:02:54;98413.50;;;9.47;84.27
76011;BME280;64701;43.536;1.478;2024-02-23T10:05:21;98424.22;;;9.58;84.22
76011;BME280;64701;43.536;1.478;2024-02-23T10:07:48;98431.41;;;9.45;83.84
76011;BME280;64701;43.536;1.478;2024-02-23T10:10:13;98427.41;;;9.29;83.37
76011;BME280;64701;43.536;1.478;2024-02-23T10:12:38;98423.97;;;9.28;85.50
76011;BME280;64701;43.536;1.478;2024-02-23T10:15:04;98433.72;;;9.21;86.50
76011;BME280;64701;43.536;1.478;2024-02-23T10:17:30;98440.53;;;8.97;88.40
76011;BME280;64701;43.536;1.478;2024-02-23T10:19:55;98443.00;;;8.86;91.48
76011;BME280;64701;43.536;1.478;2024-02-23T10:22:22;98428.38;;;8.77;92.67
76011;BME280;64701;43.536;1.478;2024-02-23T10:24:50;98447.91;;;8.69;92.96
76011;BME280;64701;43.536;1.478;2024-02-23T10:27:15;98443.81;;;8.80;95.83
76011;BME280;64701;43.536;1.478;2024-02-23T10:29:40;98447.44;;;8.85;95.44
76011;BME280;64701;43.536;1.478;2024-02-23T10:32:06;98440.19;;;8.74;93.74
76011;BME280;64701;43.536;1.478;2024-02-23T10:34:31;98451.94;;;8.72;93.37
76011;BME280;64701;43.536;1.478;2024-02-23T10:37:00;98446.91;;;8.64;92.77
76011;BME280;64701;43.536;1.478;2024-02-23T10:39:27;98443.03;;;8.59;93.69
76011;BME280;64701;43.536;1.478;2024-02-23T10:41:57;98446.28;;;8.62;94.21
76011;BME280;64701;43.536;1.478;2024-02-23T10:44:26;98460.50;;;8.54;95.05
76011;BME280;64701;43.536;1.478;2024-02-23T10:46:52;98460.28;;;8.69;96.57
76011;BME280;64701;43.536;1.478;2024-02-23T10:49:19;98463.31;;;8.59;97.44
76011;BME280;64701;43.536;1.478;2024-02-23T10:51:46;98449.13;;;8.47;97.68
76011;BME280;64701;43.536;1.478;2024-02-23T10:54:13;98456.41;;;8.58;98.40
76011;BME280;64701;43.536;1.478;2024-02-23T10:56:39;98444.03;;;8.72;98.49
76011;BME280;64701;43.536;1.478;2024-02-23T10:59:05;98453.13;;;8.82;97.22
76011;BME280;64701;43.536;1.478;2024-02-23T11:01:32;98449.84;;;9.00;96.35
76011;BME280;64701;43.536;1.478;2024-02-23T11:03:58;98453.91;;;9.02;95.88
76011;BME280;64701;43.536;1.478;2024-02-23T11:06:27;98440.47;;;9.11;93.89
76011;BME280;64701;43.536;1.478;2024-02-23T11:08:52;98462.00;;;9.14;93.14
76011;BME280;64701;43.536;1.478;2024-02-23T11:11:18;98467.31;;;9.01;94.15
76011;BME280;64701;43.536;1.478;2024-02-23T11:13:44;98472.00;;;8.99;95.07
76011;BME280;64701;43.536;1.478;2024-02-23T11:16:09;98468.78;;;8.84;95.90
76011;BME280;64701;43.536;1.478;2024-02-23T11:18:35;98477.50;;;8.78;99.15
76011;BME280;64701;43.536;1.478;2024-02-23T11:21:02;98466.38;;;8.69;100.00
76011;BME280;64701;43.536;1.478;2024-02-23T11:26:12;98463.75;;;8.56;100.00
76011;BME280;64701;43.536;1.478;2024-02-23T11:28:47;98460.28;;;8.69;100.00
76011;BME280;64701;43.536;1.478;2024-02-23T11:31:15;98458.41;;;8.89;100.00
76011;BME280;64701;43.536;1.478;2024-02-23T11:33:50;98457.16;;;9.05;100.00
76011;BME280;64701;43.536;1.478;2024-02-23T11:36:22;98455.25;;;9.18;100.00
76011;BME280;64701;43.536;1.478;2024-02-23T11:38:49;98460.69;;;9.36;100.00
76011;BME280;64701;43.536;1.478;2024-02-23T11:41:17;98458.59;;;9.52;98.93
76011;BME280;64701;43.536;1.478;2024-02-23T11:43:42;98460.47;;;9.38;95.25
76011;BME280;64701;43.536;1.478;2024-02-23T11:46:09;98450.25;;;9.48;96.93
76011;BME280;64701;43.536;1.478;2024-02-23T11:48:34;98454.72;;;9.48;95.97
76011;BME280;64701;43.536;1.478;2024-02-23T11:50:59;98443.06;;;9.24;95.06
76011;BME280;64701;43.536;1.478;2024-02-23T11:53:25;98450.22;;;9.10;97.28
76011;BME280;64701;43.536;1.478;2024-02-23T11:55:52;98449.84;;;9.00;97.61
76011;BME280;64701;43.536;1.478;2024-02-23T11:58:17;98452.09;;;8.96;97.93
76011;BME280;64701;43.536;1.478;2024-02-23T12:00:43;98447.03;;;8.82;98.50
76011;BME280;64701;43.536;1.478;2024-02-23T12:03:08;98446.66;;;8.78;99.17
76011;BME280;64701;43.536;1.478;2024-02-23T12:05:35;98445.84;;;8.65;97.68
76011;BME280;64701;43.536;1.478;2024-02-23T12:08:00;98451.31;;;8.76;99.02
76011;BME280;64701;43.536;1.478;2024-02-23T12:10:25;98442.63;;;8.76;98.27
76011;BME280;64701;43.536;1.478;2024-02-23T12:12:51;98436.47;;;8.82;97.50
76011;BME280;64701;43.536;1.478;2024-02-23T12:15:16;98431.44;;;8.74;95.50
76011;BME280;64701;43.536;1.478;2024-02-23T12:17:48;98423.88;;;8.90;96.78
76011;BME280;64701;43.536;1.478;2024-02-23T12:20:14;98420.56;;;9.08;96.17
76011;BME280;64701;43.536;1.478;2024-02-23T12:22:40;98403.53;;;9.04;96.01
76011;BME280;64701;43.536;1.478;2024-02-23T12:25:05;98409.22;;;9.01;94.00
76011;BME280;64701;43.536;1.478;2024-02-23T12:27:31;98418.88;;;9.27;94.14
76011;BME280;64701;43.536;1.478;2024-02-23T12:29:56;98398.91;;;9.37;90.55
76011;BME280;64701;43.536;1.478;2024-02-23T12:32:22;98403.25;;;9.63;88.93
76011;BME280;64701;43.536;1.478;2024-02-23T12:34:47;98392.00;;;9.74;86.22
76011;BME280;64701;43.536;1.478;2024-02-23T12:37:16;98384.44;;;9.78;85.96
76011;BME280;64701;43.536;1.478;2024-02-23T12:39:42;98395.53;;;9.93;85.71
76011;BME280;64701;43.536;1.478;2024-02-23T12:42:08;98378.69;;;10.12;83.69
76011;BME280;64701;43.536;1.478;2024-02-23T12:44:33;98379.78;;;10.30;82.04
76011;BME280;64701;43.536;1.478;2024-02-23T12:46:58;98372.59;;;10.37;78.56
76011;BME280;64701;43.536;1.478;2024-02-23T12:49:24;98377.84;;;10.80;78.07
76011;BME280;64701;43.536;1.478;2024-02-23T12:51:49;98373.97;;;11.60;76.43
76011;BME280;64701;43.536;1.478;2024-02-23T12:54:14;98377.78;;;12.06;72.39
76011;BME280;64701;43.536;1.478;2024-02-23T12:56:39;98378.00;;;12.16;72.37